KOLU

Columbus Municipal Airport

Columbus, Nebraska, USA
METAR KOLU 182156Z AUTO 21010KT 10SM SCT065 34/21 A2983 RMK AO2 LTG DSNT NW-E SLP087 T03390206
Observed Flight Rules
Jun-18 @ 21:56 UTC (50 minutes ago) Visual Flight Rules
Wind Visibility Clouds
210° at 10 knots 10 miles
  • Scattered at 6,500' AGL
Temperatures Readings
Current 34°C / 93°F
Dewpoint 21°C / 70°F
Humidity 47%
Altimeter 29.83" Hg
Pressure 1008.7 hPa
Elevation 440
METAR KOLU 182156Z AUTO 21010KT 10SM SCT065 34/21 A2983 RMK AO2 LTG DSNT NW-E SLP087 T03390206
Observed Flight Rules
Jun-18 @ 21:56 UTC
(50 minutes ago)
VFR
Wind Visibility
210° at 10 knots 10 miles
Clouds
  • Scattered at 6,500' AGL
Temperature Dewpoint
34°C / 93°F 21°C / 70°F
Humidity Altimeter Pressure
47% 29.83" Hg 1008.7 hPa